This is the latest recevied weather packets stored in our database for station/object SR8WXE. If no packets are shown the sender has not sent any weather packets the latest 1 day(s).
| Time | Temp. | Humidity | Pressure | Rain* | Wind** | Luminosity | Snow |
|---|---|---|---|---|---|---|---|
| 1778041592 | 15.56° C | 48% | 1008.6 hPa | 0 mm | - | - | - |
| 1778041292 | 15° C | 50% | 1008.6 hPa | 0 mm | - | - | - |
| 1778040992 | 14.44° C | 50% | 1008.6 hPa | 0 mm | - | - | - |
| 1778040391 | 15° C | 48% | 1008.6 hPa | 0 mm | - | - | - |
| 1778040091 | 15° C | 47% | 1008.7 hPa | 0 mm | - | - | - |
| 1778039791 | 15° C | 46% | 1008.7 hPa | 0 mm | - | - | - |
| 1778039490 | 15° C | 46% | 1008.7 hPa | 0 mm | - | - | - |
| 1778039190 | 15° C | 45% | 1008.7 hPa | 0 mm | - | - | - |
| 1778038890 | 15° C | 46% | 1008.7 hPa | 0 mm | - | - | - |
| 1778038589 | 15° C | 46% | 1008.8 hPa | 0 mm | - | - | - |
| 1778038289 | 15° C | 46% | 1008.7 hPa | 0 mm | - | - | - |
| 1778037989 | 14.44° C | 46% | 1008.7 hPa | 0 mm | - | - | - |
| 1778037689 | 14.44° C | 46% | 1008.7 hPa | 0 mm | - | - | - |
| 1778037389 | 14.44° C | 46% | 1008.7 hPa | 0 mm | - | - | - |
| 1778037088 | 14.44° C | 47% | 1008.7 hPa | 0 mm | - | - | - |
| 1778036788 | 13.89° C | 49% | 1008.7 hPa | 0 mm | - | - | - |
| 1778036187 | 12.22° C | 54% | 1008.7 hPa | 0 mm | - | - | - |
| 1778035887 | 11.11° C | 58% | 1008.8 hPa | 0 mm | - | - | - |
| 1778035587 | 10.56° C | 63% | 1008.8 hPa | 0 mm | - | - | - |
| 1778035286 | 10° C | 66% | 1008.8 hPa | 0 mm | - | - | - |
| 1778034986 | 9.44° C | 67% | 1008.9 hPa | 0 mm | - | - | - |
| 1778034686 | 9.44° C | 67% | 1008.9 hPa | 0 mm | - | - | - |
| 1778034385 | 9.44° C | 66% | 1008.9 hPa | 0 mm | - | - | - |
| 1778034085 | 10° C | 66% | 1008.9 hPa | 0 mm | - | - | - |
| 1778033785 | 10° C | 66% | 1008.9 hPa | 0 mm | - | - | - |
* Rain latest hour (hover to see other rain measurements)
** Current wind speed in m/s (hover to see current wind gust speed)